Time;durP1;ratioP1;P1;durP2;ratioP2;P2;SDS_P1;SDS_P2;PMS_P1;PMS_P2;Temp;Humidity;BMP_temperature;BMP_pressure;BME280_temperature;BME280_humidity;BME280_pressure;Samples;Min_cycle;Max_cycle;Signal;HPM_P1;HPM_P2
2024/01/06 00:02:25;;;;;;;11.10;6.28;;;8.90;75.20;;;;;;5000403;28;20384;-61
2024/01/06 00:04:51;;;;;;;11.63;6.13;;;8.90;75.30;;;;;;5005235;28;20419;-62
2024/01/06 00:07:17;;;;;;;11.27;5.93;;;8.90;75.20;;;;;;5001783;28;20093;-60
2024/01/06 00:09:42;;;;;;;9.52;5.72;;;8.90;75.20;;;;;;5001739;28;20030;-62
2024/01/06 00:12:08;;;;;;;11.55;5.95;;;8.90;75.30;;;;;;4999021;28;20486;-60
2024/01/06 00:14:34;;;;;;;10.88;6.18;;;8.90;75.30;;;;;;4999457;28;20030;-61
2024/01/06 00:17:00;;;;;;;13.15;5.47;;;8.90;75.30;;;;;;5002024;28;20037;-61
2024/01/06 00:19:25;;;;;;;11.00;5.53;;;8.90;75.30;;;;;;5004158;28;20026;-60
2024/01/06 00:21:51;;;;;;;9.57;5.22;;;8.90;75.20;;;;;;5003174;28;20037;-61
2024/01/06 00:24:17;;;;;;;9.13;5.55;;;8.90;75.20;;;;;;5003276;28;20026;-61
2024/01/06 00:26:43;;;;;;;9.93;6.05;;;8.90;75.20;;;;;;5006515;28;20037;-60
2024/01/06 00:29:08;;;;;;;11.25;6.32;;;8.90;75.20;;;;;;5000489;28;21396;-60
2024/01/06 00:31:34;;;;;;;13.70;6.15;;;8.90;75.20;;;;;;5002612;28;20048;-61
2024/01/06 00:33:59;;;;;;;10.10;5.78;;;8.90;75.10;;;;;;4999279;28;20038;-60
2024/01/06 00:36:26;;;;;;;12.30;5.65;;;8.90;75.10;;;;;;4999694;28;20034;-61
2024/01/06 00:38:52;;;;;;;9.95;5.60;;;8.90;75.20;;;;;;5002556;28;20034;-61
2024/01/06 00:41:17;;;;;;;11.10;6.13;;;8.90;75.10;;;;;;5003145;28;20587;-61
2024/01/06 00:43:43;;;;;;;12.43;6.22;;;8.90;75.10;;;;;;5000902;28;20030;-60
2024/01/06 00:46:09;;;;;;;9.52;5.22;;;8.90;75.20;;;;;;4909313;28;20121;-60
2024/01/06 00:48:34;;;;;;;10.85;5.47;;;8.80;75.00;;;;;;5002457;28;20125;-60
2024/01/06 00:51:00;;;;;;;11.13;5.45;;;8.90;75.00;;;;;;5000079;28;20022;-60
2024/01/06 00:53:26;;;;;;;9.98;5.15;;;8.90;74.90;;;;;;5003123;28;20049;-60
2024/01/06 00:55:51;;;;;;;7.78;4.13;;;8.80;74.70;;;;;;5002548;28;20034;-59
2024/01/06 00:58:17;;;;;;;8.57;4.93;;;8.80;74.60;;;;;;4996253;28;20109;-61
2024/01/06 01:00:42;;;;;;;9.02;4.85;;;8.90;74.50;;;;;;5003032;28;20032;-61
2024/01/06 01:03:08;;;;;;;9.80;2.88;;;8.80;74.40;;;;;;5004461;28;20033;-61
2024/01/06 01:05:34;;;;;;;5.80;2.83;;;8.80;74.30;;;;;;5001210;28;20038;-60
2024/01/06 01:07:59;;;;;;;4.90;3.00;;;8.80;73.90;;;;;;5002859;28;20485;-62
2024/01/06 01:10:25;;;;;;;4.90;2.15;;;8.80;73.90;;;;;;5004757;28;20370;-61
2024/01/06 01:12:51;;;;;;;7.25;2.45;;;8.80;73.80;;;;;;5000480;28;20050;-61
2024/01/06 01:15:16;;;;;;;7.80;2.90;;;8.80;73.60;;;;;;4998796;28;20022;-60
2024/01/06 01:17:42;;;;;;;4.95;2.55;;;8.80;73.70;;;;;;4998821;28;20409;-60
2024/01/06 01:20:08;;;;;;;4.50;2.60;;;8.80;73.70;;;;;;4997502;28;20022;-60
2024/01/06 01:22:34;;;;;;;6.68;2.60;;;8.70;73.60;;;;;;5000646;28;20358;-61
2024/01/06 01:25:05;;;;;;;7.53;2.35;;;8.80;73.70;;;;;;5003034;28;20030;-61
2024/01/06 01:27:30;;;;;;;5.57;2.28;;;8.80;73.70;;;;;;5001547;28;20038;-60
2024/01/06 01:29:56;;;;;;;4.28;2.20;;;9.00;73.80;;;;;;5003194;28;20489;-60
2024/01/06 01:32:22;;;;;;;3.80;2.20;;;8.70;73.70;;;;;;4996095;28;20041;-61
2024/01/06 01:34:48;;;;;;;6.38;2.70;;;8.70;73.70;;;;;;4997142;28;20394;-61
2024/01/06 01:37:15;;;;;;;3.78;2.25;;;8.70;73.80;;;;;;4999164;28;20488;-60
2024/01/06 01:39:41;;;;;;;11.00;2.45;;;8.70;73.80;;;;;;4997683;28;20033;-60
2024/01/06 01:42:06;;;;;;;4.22;2.13;;;8.70;73.90;;;;;;5002958;28;20523;-61
2024/01/06 01:44:32;;;;;;;4.07;2.03;;;8.70;73.90;;;;;;5001754;28;21022;-60
2024/01/06 01:46:58;;;;;;;3.83;2.38;;;8.60;73.90;;;;;;4897268;28;20030;-60
2024/01/06 01:49:25;;;;;;;4.97;2.33;;;8.60;73.90;;;;;;4995826;28;20038;-60
2024/01/06 01:51:52;;;;;;;4.22;2.40;;;8.60;73.90;;;;;;5000887;28;20126;-59
2024/01/06 01:54:18;;;;;;;5.22;2.35;;;8.60;74.00;;;;;;5000781;28;20050;-61
2024/01/06 01:56:44;;;;;;;4.03;1.90;;;8.60;74.00;;;;;;5000069;28;20037;-60
2024/01/06 01:59:16;;;;;;;5.50;2.30;;;8.60;74.00;;;;;;5002583;28;20432;-60
2024/01/06 02:01:42;;;;;;;7.65;2.13;;;8.50;73.90;;;;;;5001293;28;20025;-61
2024/01/06 02:04:09;;;;;;;4.88;2.38;;;8.50;73.90;;;;;;5001588;28;20026;-60
2024/01/06 02:06:34;;;;;;;5.55;1.80;;;8.50;73.80;;;;;;5001260;28;20037;-61
2024/01/06 02:09:01;;;;;;;3.42;1.50;;;8.50;73.80;;;;;;5002212;28;20400;-61
2024/01/06 02:11:26;;;;;;;6.10;1.90;;;8.50;73.80;;;;;;5003045;28;20033;-60
2024/01/06 02:13:52;;;;;;;2.55;1.85;;;8.40;73.90;;;;;;5003224;28;20073;-62
2024/01/06 02:16:17;;;;;;;4.15;2.00;;;8.40;74.00;;;;;;5001465;28;20033;-61
2024/01/06 02:18:43;;;;;;;4.03;1.80;;;8.40;74.10;;;;;;5002337;28;20034;-60
2024/01/06 02:21:09;;;;;;;5.55;1.80;;;8.40;74.10;;;;;;4996378;28;20034;-60
2024/01/06 02:23:36;;;;;;;5.13;1.80;;;8.40;74.10;;;;;;5000257;28;20026;-62
2024/01/06 02:26:02;;;;;;;3.22;1.48;;;8.40;74.10;;;;;;5001465;28;20034;-60
2024/01/06 02:28:28;;;;;;;3.78;1.45;;;8.40;74.10;;;;;;5001576;28;20425;-60
2024/01/06 02:30:54;;;;;;;6.88;1.92;;;8.30;74.10;;;;;;4996606;28;20046;-61
2024/01/06 02:33:20;;;;;;;5.78;1.70;;;8.30;74.20;;;;;;5003660;28;20076;-61
2024/01/06 02:35:46;;;;;;;4.88;2.03;;;8.30;74.20;;;;;;4998334;28;20025;-61
2024/01/06 02:38:12;;;;;;;5.05;1.70;;;8.30;74.30;;;;;;5000461;28;20058;-60
2024/01/06 02:40:37;;;;;;;4.15;1.85;;;8.30;74.40;;;;;;5002984;28;20444;-60
2024/01/06 02:43:03;;;;;;;3.65;2.10;;;8.30;74.40;;;;;;5001780;28;20057;-62
2024/01/06 02:45:29;;;;;;;4.10;1.85;;;8.30;74.40;;;;;;4945850;28;20026;-61
2024/01/06 02:47:55;;;;;;;4.25;1.80;;;8.40;74.50;;;;;;5001801;28;20586;-61
2024/01/06 02:50:22;;;;;;;3.40;1.77;;;8.40;74.40;;;;;;4999355;28;20029;-60
2024/01/06 02:52:47;;;;;;;3.03;2.00;;;8.40;74.30;;;;;;4998080;28;20041;-60
2024/01/06 02:55:13;;;;;;;3.50;1.80;;;8.40;74.30;;;;;;4999501;28;20085;-60
2024/01/06 02:57:40;;;;;;;3.17;1.70;;;8.40;74.30;;;;;;4999375;28;20075;-60
2024/01/06 03:00:07;;;;;;;6.82;2.00;;;8.40;74.40;;;;;;5000899;28;20044;-60
2024/01/06 03:02:33;;;;;;;4.43;2.03;;;8.40;74.30;;;;;;4995928;28;20062;-61
2024/01/06 03:04:58;;;;;;;5.55;2.00;;;8.40;74.30;;;;;;4997928;28;20030;-61
2024/01/06 03:07:24;;;;;;;2.63;1.77;;;8.40;74.30;;;;;;4993121;28;20099;-61
2024/01/06 03:09:50;;;;;;;3.47;1.92;;;8.40;74.20;;;;;;5002534;28;20544;-61
2024/01/06 03:12:15;;;;;;;5.47;1.88;;;8.40;74.10;;;;;;5002313;28;20107;-62
2024/01/06 03:14:41;;;;;;;5.40;1.70;;;8.40;74.10;;;;;;5004437;28;20053;-61
2024/01/06 03:17:07;;;;;;;4.82;1.98;;;8.40;74.10;;;;;;5001267;28;20061;-61
2024/01/06 03:19:32;;;;;;;4.53;1.63;;;8.30;74.10;;;;;;5000716;28;20580;-61
2024/01/06 03:21:58;;;;;;;4.22;1.92;;;8.30;74.00;;;;;;5006720;28;20042;-61
2024/01/06 03:24:25;;;;;;;6.97;2.60;;;8.30;74.00;;;;;;5001226;28;20026;-60
2024/01/06 03:26:51;;;;;;;4.82;1.90;;;8.30;74.10;;;;;;5002074;28;20392;-61
2024/01/06 03:29:17;;;;;;;4.85;1.90;;;8.30;74.10;;;;;;5002923;28;20022;-61
2024/01/06 03:31:47;;;;;;;4.22;1.67;;;8.20;74.10;;;;;;5002458;28;20046;-61
2024/01/06 03:34:13;;;;;;;4.70;1.70;;;8.20;74.10;;;;;;5001107;28;20520;-63
2024/01/06 03:36:39;;;;;;;3.42;1.77;;;8.20;74.10;;;;;;4997607;28;20664;-60
2024/01/06 03:39:06;;;;;;;5.90;2.00;;;8.20;74.10;;;;;;5006020;28;20407;-60
2024/01/06 03:41:32;;;;;;;2.78;1.70;;;8.20;74.10;;;;;;5003333;28;20053;-61
2024/01/06 03:43:58;;;;;;;7.53;1.85;;;8.10;74.00;;;;;;5001315;28;20455;-61
2024/01/06 03:46:24;;;;;;;7.22;1.85;;;8.10;74.10;;;;;;4910079;28;20040;-60
2024/01/06 03:48:51;;;;;;;11.50;2.15;;;8.10;74.20;;;;;;5002913;28;20053;-61
2024/01/06 03:51:16;;;;;;;6.97;2.10;;;8.10;74.30;;;;;;5003537;28;20037;-60
2024/01/06 03:53:42;;;;;;;9.52;2.28;;;8.00;74.30;;;;;;4998100;28;20052;-60
2024/01/06 03:56:08;;;;;;;5.70;1.90;;;8.00;74.20;;;;;;5004627;28;20484;-60
2024/01/06 03:58:34;;;;;;;11.85;2.50;;;8.00;73.90;;;;;;5004292;28;20053;-61
2024/01/06 04:01:00;;;;;;;5.53;1.92;;;8.00;73.70;;;;;;5002367;28;20275;-60
2024/01/06 04:03:26;;;;;;;8.00;2.60;;;8.00;73.70;;;;;;4999700;28;20030;-61
2024/01/06 04:05:51;;;;;;;6.43;2.03;;;8.00;73.70;;;;;;5000560;28;20034;-61
2024/01/06 04:08:18;;;;;;;5.22;1.70;;;8.00;73.50;;;;;;5000310;28;20033;-61
2024/01/06 04:10:44;;;;;;;5.43;1.88;;;8.00;73.50;;;;;;5006037;28;20036;-60
2024/01/06 04:13:11;;;;;;;9.73;1.92;;;8.00;73.60;;;;;;5004887;28;20400;-61
2024/01/06 04:15:37;;;;;;;7.18;2.20;;;8.00;73.50;;;;;;5002379;28;20445;-61
2024/01/06 04:18:04;;;;;;;7.90;2.10;;;8.00;73.30;;;;;;5003810;28;20042;-61
2024/01/06 04:20:30;;;;;;;4.53;2.13;;;8.00;73.30;;;;;;5006215;28;20025;-60
2024/01/06 04:22:55;;;;;;;6.55;1.83;;;8.00;73.30;;;;;;4999235;28;20038;-61
2024/01/06 04:25:21;;;;;;;4.18;1.80;;;8.00;73.30;;;;;;5003643;28;20034;-61
2024/01/06 04:27:48;;;;;;;5.57;2.17;;;8.00;73.50;;;;;;4999872;28;20375;-61
2024/01/06 04:30:14;;;;;;;8.93;2.03;;;8.00;73.50;;;;;;5003848;28;20153;-60
2024/01/06 04:32:40;;;;;;;6.07;1.90;;;8.00;73.40;;;;;;5003340;28;20172;-60
2024/01/06 04:35:06;;;;;;;2.70;1.58;;;7.90;73.30;;;;;;4998281;28;20121;-60
2024/01/06 04:37:32;;;;;;;7.60;2.13;;;7.90;73.30;;;;;;5002373;28;20124;-61
2024/01/06 04:39:58;;;;;;;4.32;1.65;;;7.90;73.30;;;;;;5000187;28;20038;-60
2024/01/06 04:42:24;;;;;;;5.90;1.95;;;7.80;73.30;;;;;;5000820;28;20041;-60
2024/01/06 04:44:58;;;;;;;6.78;1.90;;;7.80;73.30;;;;;;4991437;28;21189;-61
2024/01/06 04:47:25;;;;;;;6.35;2.28;;;7.80;73.40;;;;;;5001756;28;20026;-60
2024/01/06 04:49:51;;;;;;;7.25;1.98;;;7.70;73.40;;;;;;5002268;28;20030;-61
2024/01/06 04:52:16;;;;;;;4.85;1.75;;;7.70;73.40;;;;;;5005391;28;20044;-61
2024/01/06 04:54:42;;;;;;;3.13;1.70;;;7.70;73.50;;;;;;5004616;28;20100;-60
2024/01/06 04:57:07;;;;;;;2.20;1.60;;;7.70;73.50;;;;;;5004037;28;20037;-60
2024/01/06 04:59:33;;;;;;;10.95;2.47;;;7.60;74.10;;;;;;5002368;28;20034;-61
2024/01/06 05:01:59;;;;;;;6.43;2.00;;;7.60;73.50;;;;;;5001219;28;20068;-60
2024/01/06 05:04:24;;;;;;;3.67;2.00;;;7.60;73.60;;;;;;5001013;28;20105;-60
2024/01/06 05:06:54;;;;;;;4.38;1.85;;;7.60;73.70;;;;;;5004829;28;20034;-59
2024/01/06 05:09:20;;;;;;;3.55;1.83;;;7.50;73.70;;;;;;5000394;28;20037;-60
2024/01/06 05:11:46;;;;;;;4.28;1.98;;;7.50;73.60;;;;;;5000178;28;20046;-60
2024/01/06 05:14:12;;;;;;;6.70;2.33;;;7.60;73.70;;;;;;5000901;28;20033;-61
2024/01/06 05:16:37;;;;;;;3.17;1.55;;;7.50;73.80;;;;;;5003436;28;20025;-60
2024/01/06 05:19:03;;;;;;;5.65;2.15;;;7.50;73.90;;;;;;5001046;28;20096;-60
2024/01/06 05:21:30;;;;;;;6.45;2.25;;;7.50;73.90;;;;;;5003515;28;20041;-61
2024/01/06 05:23:55;;;;;;;3.75;1.67;;;7.50;73.80;;;;;;4999311;28;20030;-60
2024/01/06 05:26:21;;;;;;;6.38;1.92;;;7.50;73.80;;;;;;5001197;28;20515;-61
2024/01/06 05:28:47;;;;;;;8.38;2.10;;;7.50;73.80;;;;;;5004241;28;20025;-60
2024/01/06 05:31:12;;;;;;;9.73;1.70;;;7.50;73.90;;;;;;4996395;28;20036;-60
2024/01/06 05:33:38;;;;;;;6.35;1.92;;;7.50;74.00;;;;;;5003633;28;20038;-61
2024/01/06 05:36:04;;;;;;;6.80;2.00;;;7.40;74.10;;;;;;4999352;28;20026;-60
2024/01/06 05:38:30;;;;;;;5.25;2.30;;;7.50;74.10;;;;;;4996211;28;20106;-60
2024/01/06 05:40:56;;;;;;;4.22;1.90;;;7.50;74.20;;;;;;5001784;28;20471;-60
2024/01/06 05:43:21;;;;;;;4.72;2.00;;;7.50;74.20;;;;;;4997717;28;20518;-60
2024/01/06 05:45:47;;;;;;;3.63;1.90;;;7.50;74.20;;;;;;4937538;28;20036;-60
2024/01/06 05:48:12;;;;;;;3.45;1.65;;;7.50;74.20;;;;;;4999349;28;20022;-60
2024/01/06 05:50:39;;;;;;;4.38;1.90;;;7.50;74.20;;;;;;4997857;28;20033;-61
2024/01/06 05:53:05;;;;;;;5.45;2.22;;;7.50;74.10;;;;;;5002117;28;20062;-60
2024/01/06 05:55:31;;;;;;;5.28;1.90;;;7.50;74.00;;;;;;4995129;28;20393;-60
2024/01/06 05:57:57;;;;;;;4.05;2.00;;;7.50;74.10;;;;;;5003880;28;20780;-60
2024/01/06 06:00:23;;;;;;;6.00;1.60;;;7.50;74.30;;;;;;5001883;28;20132;-61
2024/01/06 06:02:48;;;;;;;3.97;1.60;;;7.50;74.30;;;;;;4999635;28;20036;-60
2024/01/06 06:05:14;;;;;;;3.75;1.70;;;7.50;74.40;;;;;;5003484;28;20049;-60
2024/01/06 06:07:40;;;;;;;4.15;1.70;;;7.50;74.40;;;;;;5000233;28;20089;-61
2024/01/06 06:10:10;;;;;;;8.95;1.65;;;7.50;74.40;;;;;;5000370;28;20088;-61
2024/01/06 06:12:37;;;;;;;2.78;1.60;;;7.60;74.40;;;;;;4997794;28;20046;-60
2024/01/06 06:15:03;;;;;;;3.88;1.40;;;7.60;74.30;;;;;;4998713;28;20100;-60
2024/01/06 06:17:30;;;;;;;6.32;1.92;;;7.60;74.20;;;;;;4996538;28;20071;-62
2024/01/06 06:19:57;;;;;;;4.47;2.17;;;7.60;74.20;;;;;;4999806;28;20485;-62
2024/01/06 06:22:25;;;;;;;6.85;1.73;;;7.60;74.10;;;;;;5003601;28;20037;-61
2024/01/06 06:24:51;;;;;;;3.85;1.40;;;7.60;74.10;;;;;;4995875;28;20408;-61
2024/01/06 06:27:17;;;;;;;2.63;1.45;;;7.60;74.00;;;;;;5001584;28;20046;-61
2024/01/06 06:29:42;;;;;;;2.95;1.80;;;7.60;74.00;;;;;;5003143;28;20396;-61
2024/01/06 06:32:08;;;;;;;3.38;1.60;;;7.60;74.00;;;;;;5000977;28;20049;-61
2024/01/06 06:34:34;;;;;;;4.35;1.65;;;7.60;73.90;;;;;;4996655;28;20026;-61
2024/01/06 06:36:59;;;;;;;4.40;1.67;;;7.60;74.00;;;;;;5001141;28;20026;-61
2024/01/06 06:39:27;;;;;;;9.68;3.50;;;7.60;73.90;;;;;;4997299;28;20108;-60
2024/01/06 06:41:52;;;;;;;12.43;4.45;;;7.60;73.90;;;;;;5003225;28;20167;-60
2024/01/06 06:44:18;;;;;;;13.55;5.05;;;7.60;73.90;;;;;;5000605;28;20110;-62
2024/01/06 06:46:44;;;;;;;12.77;4.32;;;7.60;73.90;;;;;;4999271;28;20034;-62
2024/01/06 06:49:09;;;;;;;10.07;4.43;;;7.60;74.00;;;;;;5001295;28;20092;-60
2024/01/06 06:51:35;;;;;;;11.88;5.38;;;7.60;74.00;;;;;;5003873;28;20038;-61
2024/01/06 06:54:01;;;;;;;13.75;4.90;;;7.60;73.90;;;;;;5001100;28;20095;-62
2024/01/06 06:56:26;;;;;;;7.22;4.03;;;7.50;73.80;;;;;;5000755;28;20026;-61
2024/01/06 06:58:52;;;;;;;7.68;3.38;;;7.50;73.80;;;;;;4992640;28;20100;-61
2024/01/06 07:01:18;;;;;;;6.50;2.90;;;7.50;73.80;;;;;;5006162;28;20117;-60
2024/01/06 07:03:44;;;;;;;4.90;2.40;;;7.50;73.70;;;;;;5006001;28;20575;-63
2024/01/06 07:06:14;;;;;;;5.70;2.42;;;7.50;73.80;;;;;;4993564;28;20030;-60
2024/01/06 07:08:41;;;;;;;9.32;2.40;;;7.40;73.90;;;;;;5000859;28;20038;-61
2024/01/06 07:11:07;;;;;;;7.22;2.40;;;7.40;73.90;;;;;;5003222;28;20061;-60
2024/01/06 07:13:33;;;;;;;6.15;2.90;;;7.40;73.90;;;;;;5004990;28;20120;-62
2024/01/06 07:15:59;;;;;;;5.25;3.15;;;7.40;73.80;;;;;;5001439;28;20640;-60
2024/01/06 07:18:25;;;;;;;6.45;2.67;;;7.40;73.90;;;;;;5005025;28;20038;-60
2024/01/06 07:20:51;;;;;;;6.45;2.33;;;7.40;73.90;;;;;;5006865;28;20058;-60
2024/01/06 07:23:16;;;;;;;5.38;1.95;;;7.40;73.90;;;;;;4998739;28;20072;-60
2024/01/06 07:25:42;;;;;;;4.28;1.70;;;7.40;73.80;;;;;;5005457;28;20072;-59
2024/01/06 07:28:09;;;;;;;9.63;2.08;;;7.40;73.70;;;;;;5001789;28;20049;-63
2024/01/06 07:30:34;;;;;;;5.40;1.75;;;7.40;73.60;;;;;;5001992;28;20034;-63
2024/01/06 07:33:00;;;;;;;3.08;1.40;;;7.40;73.50;;;;;;5003158;28;20045;-63
2024/01/06 07:35:26;;;;;;;5.30;1.48;;;7.40;73.40;;;;;;5000735;28;20036;-63
2024/01/06 07:37:52;;;;;;;4.22;1.40;;;7.30;73.30;;;;;;4999626;28;20069;-62
2024/01/06 07:40:18;;;;;;;6.78;1.50;;;7.30;73.30;;;;;;5001846;28;20030;-62
2024/01/06 07:42:44;;;;;;;5.18;1.55;;;7.30;73.40;;;;;;5000625;28;20037;-62
2024/01/06 07:45:10;;;;;;;7.70;1.70;;;7.30;73.50;;;;;;4935894;28;20029;-62
2024/01/06 07:47:38;;;;;;;4.95;1.15;;;7.30;73.60;;;;;;5000467;28;20025;-61
2024/01/06 07:50:05;;;;;;;24.05;9.55;;;7.30;73.80;;;;;;5004984;28;20034;-63
2024/01/06 07:52:30;;;;;;;9.43;3.47;;;7.30;73.70;;;;;;5004287;28;20401;-62
2024/01/06 07:54:56;;;;;;;5.10;2.03;;;7.30;73.60;;;;;;4999953;28;20054;-62
2024/01/06 07:57:22;;;;;;;10.77;1.90;;;7.30;73.50;;;;;;5003717;28;20101;-63
2024/01/06 07:59:47;;;;;;;6.13;2.08;;;7.30;73.40;;;;;;5002289;28;20025;-62
2024/01/06 08:02:13;;;;;;;7.97;2.47;;;7.30;73.50;;;;;;4998849;28;20034;-63
2024/01/06 08:04:38;;;;;;;5.45;2.10;;;7.30;73.60;;;;;;5022163;28;20025;-63
2024/01/06 08:07:04;;;;;;;3.45;1.50;;;7.30;73.60;;;;;;4997092;28;20037;-63
2024/01/06 08:09:30;;;;;;;5.38;2.00;;;7.30;73.80;;;;;;5001908;28;20489;-61
2024/01/06 08:11:56;;;;;;;9.55;4.20;;;7.30;73.80;;;;;;4997095;28;20184;-63
2024/01/06 08:14:21;;;;;;;15.45;7.65;;;7.40;73.90;;;;;;5005853;28;20025;-62
2024/01/06 08:16:47;;;;;;;19.05;8.70;;;7.40;74.00;;;;;;5000363;28;20042;-62
2024/01/06 08:19:13;;;;;;;13.13;6.53;;;7.40;74.00;;;;;;5000798;28;20474;-61
2024/01/06 08:21:39;;;;;;;11.80;6.40;;;7.50;74.00;;;;;;5005639;28;20736;-62
2024/01/06 08:24:04;;;;;;;17.60;6.28;;;7.50;73.90;;;;;;5003226;28;20058;-61
2024/01/06 08:26:30;;;;;;;11.40;5.15;;;7.50;73.80;;;;;;4998410;28;20389;-62
2024/01/06 08:28:56;;;;;;;12.30;5.63;;;7.60;73.90;;;;;;5022972;28;20488;-63
2024/01/06 08:31:22;;;;;;;12.32;5.63;;;7.60;73.90;;;;;;5003529;28;20029;-63
2024/01/06 08:33:48;;;;;;;8.77;4.55;;;7.60;74.10;;;;;;5000055;28;20041;-62
2024/01/06 08:36:14;;;;;;;14.20;4.93;;;7.70;74.10;;;;;;5001428;28;20026;-62
2024/01/06 08:38:39;;;;;;;10.18;5.70;;;7.70;73.90;;;;;;5001905;28;20057;-62
2024/01/06 08:41:05;;;;;;;8.10;3.67;;;7.80;73.90;;;;;;4998891;28;20384;-62
2024/01/06 08:43:31;;;;;;;7.38;3.83;;;7.80;73.60;;;;;;4997722;28;20038;-62
2024/01/06 08:45:57;;;;;;;8.98;3.67;;;7.90;73.50;;;;;;5001674;28;20459;-62
2024/01/06 08:48:24;;;;;;;9.57;5.63;;;7.90;73.40;;;;;;4920333;28;20033;-62
2024/01/06 08:50:50;;;;;;;14.85;8.48;;;7.90;73.50;;;;;;5000411;28;20033;-62
2024/01/06 08:53:16;;;;;;;8.40;4.25;;;8.00;73.40;;;;;;5002810;28;20056;-62
2024/01/06 08:55:42;;;;;;;8.25;3.85;;;8.00;73.30;;;;;;5000688;28;20034;-62
2024/01/06 08:58:07;;;;;;;9.60;3.75;;;8.10;73.10;;;;;;5002322;28;20062;-62
2024/01/06 09:00:33;;;;;;;6.03;3.10;;;8.10;72.90;;;;;;5003148;28;20026;-62
2024/01/06 09:02:59;;;;;;;6.80;2.50;;;8.10;72.80;;;;;;5001566;28;20088;-62
2024/01/06 09:05:25;;;;;;;5.80;2.42;;;8.20;72.70;;;;;;5000734;28;20569;-61
2024/01/06 09:07:51;;;;;;;4.03;2.15;;;8.20;72.50;;;;;;5001610;28;20109;-64
2024/01/06 09:10:17;;;;;;;10.35;5.25;;;8.20;72.30;;;;;;4999890;28;20392;-63
2024/01/06 09:12:43;;;;;;;8.02;3.88;;;8.30;72.40;;;;;;5003516;28;20037;-63
2024/01/06 09:15:09;;;;;;;5.18;2.75;;;8.30;72.20;;;;;;5001572;28;20030;-62
2024/01/06 09:17:35;;;;;;;6.53;2.92;;;8.30;72.10;;;;;;5002484;28;20045;-62
2024/01/06 09:20:01;;;;;;;6.70;2.90;;;8.40;72.00;;;;;;5001067;28;20029;-62
2024/01/06 09:22:27;;;;;;;5.97;2.50;;;8.40;71.50;;;;;;4997859;28;20119;-62
2024/01/06 09:24:53;;;;;;;7.43;2.67;;;8.40;71.30;;;;;;5000142;28;20033;-62
2024/01/06 09:27:19;;;;;;;4.93;2.28;;;8.50;71.40;;;;;;4998372;28;20038;-63
2024/01/06 09:29:45;;;;;;;4.15;2.30;;;8.50;71.20;;;;;;4999708;28;20025;-63
2024/01/06 09:32:12;;;;;;;5.50;2.30;;;8.50;71.20;;;;;;5002679;28;20514;-63
2024/01/06 09:34:38;;;;;;;5.65;2.08;;;8.50;71.30;;;;;;5003851;28;20029;-61
2024/01/06 09:37:04;;;;;;;4.80;2.33;;;8.50;71.80;;;;;;5004291;28;20037;-63
2024/01/06 09:39:31;;;;;;;5.32;2.38;;;8.50;70.60;;;;;;5000790;28;20029;-63
2024/01/06 09:41:57;;;;;;;7.88;2.40;;;8.50;70.40;;;;;;4999196;28;20503;-61
2024/01/06 09:44:23;;;;;;;8.32;2.22;;;8.50;70.30;;;;;;5001345;28;20034;-63
2024/01/06 09:46:49;;;;;;;2.90;1.92;;;8.50;70.20;;;;;;4910151;28;20552;-62
2024/01/06 09:49:22;;;;;;;7.00;3.00;;;8.40;70.10;;;;;;5002565;28;20381;-63
2024/01/06 09:51:51;;;;;;;6.43;2.55;;;8.40;70.40;;;;;;5004918;28;20038;-62
2024/01/06 09:54:24;;;;;;;4.90;2.20;;;8.40;70.50;;;;;;5004280;28;20086;-62
2024/01/06 09:56:50;;;;;;;2.47;1.83;;;8.40;70.40;;;;;;4993218;28;20065;-63
2024/01/06 09:59:16;;;;;;;4.47;2.00;;;8.40;70.30;;;;;;5001616;28;20057;-63
2024/01/06 10:01:42;;;;;;;4.30;1.92;;;8.40;70.30;;;;;;4994334;28;20026;-63
2024/01/06 10:04:08;;;;;;;8.43;2.65;;;8.40;70.20;;;;;;5002584;28;20026;-63
2024/01/06 10:06:35;;;;;;;4.35;1.70;;;8.40;70.00;;;;;;5001258;28;20057;-62
2024/01/06 10:09:01;;;;;;;6.53;1.75;;;8.30;69.30;;;;;;5003583;28;20034;-62
2024/01/06 10:11:27;;;;;;;6.15;1.80;;;8.30;69.70;;;;;;5001101;28;20036;-62
2024/01/06 10:13:56;;;;;;;9.98;2.20;;;8.30;70.20;;;;;;4995240;28;20053;-62
2024/01/06 10:16:22;;;;;;;5.60;1.63;;;8.30;70.10;;;;;;4995140;28;20026;-62
2024/01/06 10:18:48;;;;;;;10.05;2.13;;;8.30;70.20;;;;;;5001743;28;20054;-62
2024/01/06 10:21:17;;;;;;;3.92;1.98;;;8.30;70.30;;;;;;5001794;28;20065;-62
2024/01/06 10:23:42;;;;;;;4.45;1.63;;;8.30;70.40;;;;;;4999781;28;20053;-62
2024/01/06 10:26:12;;;;;;;6.15;2.90;;;8.40;70.40;;;;;;5005490;28;20759;-61
2024/01/06 10:28:38;;;;;;;6.45;2.40;;;8.40;70.10;;;;;;5003994;28;20150;-63
2024/01/06 10:31:04;;;;;;;4.53;2.03;;;8.50;70.10;;;;;;5003427;28;20463;-63
2024/01/06 10:33:33;;;;;;;4.68;1.88;;;8.50;70.00;;;;;;4999228;28;20034;-63
2024/01/06 10:36:01;;;;;;;5.45;1.77;;;8.50;69.70;;;;;;4999814;28;20036;-63
2024/01/06 10:38:28;;;;;;;6.00;2.00;;;8.60;69.70;;;;;;5004871;28;20084;-63
2024/01/06 10:41:09;;;;;;;9.98;2.22;;;8.60;69.30;;;;;;5008499;28;20029;-62
2024/01/06 10:43:41;;;;;;;5.70;1.83;;;8.60;69.00;;;;;;5006942;28;20033;-62
2024/01/06 10:46:10;;;;;;;5.93;1.90;;;8.50;68.70;;;;;;5007623;28;20026;-62
2024/01/06 10:48:45;;;;;;;4.07;2.10;;;8.50;68.90;;;;;;5009012;28;20058;-62
2024/01/06 10:51:13;;;;;;;3.03;1.52;;;8.50;69.10;;;;;;5008205;28;20065;-63
2024/01/06 10:53:40;;;;;;;5.65;2.10;;;8.50;69.20;;;;;;4998810;28;20109;-63
2024/01/06 10:56:10;;;;;;;9.35;5.45;;;8.50;69.10;;;;;;5004693;28;20026;-63
2024/01/06 10:58:43;;;;;;;8.02;2.78;;;8.50;69.30;;;;;;5006632;28;20045;-63
2024/01/06 11:01:12;;;;;;;3.38;2.00;;;8.60;69.40;;;;;;5004956;28;20647;-63
2024/01/06 11:03:39;;;;;;;5.00;2.55;;;8.60;69.00;;;;;;5003974;28;20023;-62
2024/01/06 11:06:11;;;;;;;2.85;1.42;;;8.60;69.00;;;;;;5004357;28;20037;-63
2024/01/06 11:09:27;;;;;;;4.97;2.05;;;8.60;68.80;;;;;;5004205;28;20033;-63
2024/01/06 11:11:54;;;;;;;6.28;1.70;;;8.60;68.10;;;;;;4993627;28;20412;-63
2024/01/06 11:14:25;;;;;;;4.53;1.88;;;8.70;68.80;;;;;;5000181;28;20041;-63
2024/01/06 11:16:51;;;;;;;4.85;2.08;;;8.70;68.40;;;;;;5004412;28;20038;-63
2024/01/06 11:19:40;;;;;;;3.47;1.50;;;8.60;68.30;;;;;;5000782;28;20113;-63
2024/01/06 11:22:39;;;;;;;2.90;1.60;;;8.60;67.80;;;;;;5006613;28;20038;-63
2024/01/06 11:25:13;;;;;;;5.88;1.52;;;8.60;67.40;;;;;;4958120;28;20633;-62
2024/01/06 11:27:41;;;;;;;2.97;1.48;;;8.50;67.90;;;;;;4962389;28;20058;-65
2024/01/06 11:30:08;;;;;;;3.78;1.70;;;8.50;68.20;;;;;;4962673;28;20041;-63
2024/01/06 11:32:36;;;;;;;3.40;1.75;;;8.50;68.30;;;;;;4962243;28;20054;-63
2024/01/06 11:35:10;;;;;;;6.20;2.42;;;8.50;68.10;;;;;;4965970;28;20047;-63
2024/01/06 11:37:51;;;;;;;4.43;2.00;;;8.50;68.10;;;;;;4968146;28;20590;-62
2024/01/06 11:40:25;;;;;;;1.83;1.35;;;8.60;68.20;;;;;;4961267;28;20039;-63
2024/01/06 11:42:58;;;;;;;;;;;8.60;68.10;;;;;;4966416;28;20082;-62
2024/01/06 11:45:27;;;;;;;1.00;0.90;;;8.60;67.80;;;;;;4899383;28;19918;-63
2024/01/06 11:48:02;;;;;;;3.67;1.27;;;8.60;68.10;;;;;;4961966;28;20053;-63
2024/01/06 11:50:29;;;;;;;1.77;1.33;;;8.60;67.90;;;;;;4965275;28;20035;-63
2024/01/06 11:52:55;;;;;;;1.33;0.90;;;8.60;68.20;;;;;;4949990;28;20104;-62
2024/01/06 11:55:21;;;;;;;1.10;0.70;;;8.70;68.30;;;;;;4957254;28;20412;-63
2024/01/06 11:57:50;;;;;;;2.50;1.00;;;8.70;68.30;;;;;;4963885;28;20038;-62
2024/01/06 12:00:17;;;;;;;2.92;0.77;;;8.80;68.10;;;;;;4972934;28;20034;-62
2024/01/06 12:02:43;;;;;;;1.20;0.80;;;8.80;68.60;;;;;;5003134;28;20109;-61
2024/01/06 12:05:17;;;;;;;1.45;0.75;;;8.80;67.80;;;;;;4997989;28;20120;-62
2024/01/06 12:08:06;;;;;;;1.17;1.08;;;8.80;67.20;;;;;;5001771;28;20029;-62
2024/01/06 12:10:33;;;;;;;2.50;0.90;;;8.90;67.60;;;;;;5002542;28;20393;-62
2024/01/06 12:13:00;;;;;;;1.13;0.80;;;8.90;67.70;;;;;;5008334;28;20562;-62
2024/01/06 12:15:27;;;;;;;1.20;0.82;;;8.90;67.60;;;;;;5001038;28;20033;-62
2024/01/06 12:17:52;;;;;;;1.35;0.68;;;8.90;67.50;;;;;;5001917;28;20095;-62
2024/01/06 12:20:18;;;;;;;1.77;1.10;;;9.00;67.40;;;;;;5004163;28;20488;-62
2024/01/06 12:22:44;;;;;;;1.73;0.90;;;8.90;67.00;;;;;;5002058;28;20025;-63
2024/01/06 12:25:10;;;;;;;2.28;0.73;;;8.90;67.00;;;;;;5002015;28;20029;-64
2024/01/06 12:27:35;;;;;;;1.35;0.85;;;8.90;66.70;;;;;;4999622;28;20049;-63
2024/01/06 12:30:02;;;;;;;1.30;1.00;;;8.90;66.60;;;;;;5006131;28;20038;-63
2024/01/06 12:32:28;;;;;;;1.33;1.02;;;8.90;66.70;;;;;;5002147;28;20042;-63
2024/01/06 12:34:55;;;;;;;1.42;1.13;;;8.90;66.90;;;;;;5005244;28;20511;-63
2024/01/06 12:37:23;;;;;;;2.25;1.40;;;8.80;66.90;;;;;;5005023;28;20026;-62
2024/01/06 12:39:51;;;;;;;1.42;1.05;;;8.90;67.20;;;;;;5003594;28;20075;-62
2024/01/06 12:42:17;;;;;;;1.48;0.88;;;8.90;67.20;;;;;;5000789;28;20076;-63
2024/01/06 12:44:51;;;;;;;2.35;0.90;;;8.90;67.10;;;;;;4992504;28;20022;-65
2024/01/06 12:47:18;;;;;;;2.10;1.10;;;8.90;66.50;;;;;;4998239;28;20034;-62
2024/01/06 12:49:44;;;;;;;3.75;0.90;;;8.90;66.60;;;;;;5024205;28;20096;-63
2024/01/06 12:52:09;;;;;;;1.00;0.80;;;8.80;66.90;;;;;;5004807;28;20488;-63
2024/01/06 12:54:35;;;;;;;1.38;0.90;;;8.80;67.00;;;;;;5004111;28;20536;-62